Аэропорт: Кемерово. Кемерово

ICAO: UNEE

METAR:
2019-11-21 09:00:00
UNEE 210900Z 16005MPS 4100 -SHSN BKN033CB M24/M28 Q1029 R23/950534 NOSIG RMK QFE749
METAR:
2019-11-21 08:00:00
TAF UNEE 210800Z 2109/2209 17006G14MPS 9999 SCT030 TEMPO 2109/2112 3100 -SHSN BKN011CB BECMG 2112/2113 3100 -SHSN BKN011CB TEMPO 2113/2203 0800 +SHSN BKN003 BKN011CB